Portada
METAR-TAF:

METAR-TAF

Aeroports :

Bàssora, Iraq

latitud: 30-32-56N, longitud: 47-39-45E, altitud: 1 m

Observació

L'informe es va fer fa 1 hora i 41 minuts, a les 12:00 UTC
Vent 12 kt del Oest/Nord-Oest
Temperatura 51°C
Humitat 8%
Pressió 996 hPa
Visibilitat 10 km o més
sense núvols per sota de 1500 mi sense presència de cumulonimbus.

METAR: ORMM 081200Z 30012KT CAVOK 51/08 Q0996 NOSIG

Hora: 16:41 (13:41 UTC)

Pronòstic

L'informe es va fer fa 3 hores i 41 minuts, a les 10:00 UTC
Pronòstic vàlid del 08 a les 12 UTC al 09 a les 12 UTC
Vent 14 kt del Oest/Nord-Oest
Visibilitat 10 km o més
sense núvols per sota de 1500 mi sense presència de cumulonimbus.
Temporalment
l' 08 a les 20 UTC al 09 a les 09 UTC
Vent 20 kt del Oest/Nord-Oest
Visibilitat: 6000 m

TAF: ORMM 081000Z 0812/0912 30014KT CAVOK TEMPO 0820/0909 30020KT 6000 NSC

Observacions i pronòstics meteorològics de més de 4000 aeroports (METAR i TAF).

Les estacions disponibles són els punts grocs i vermells al mapa.

Posi el ratolí al punt desitjat per veure el nom de l'estació.

Feu clic per veure les observacions i els pronòstics meteorològics.

Per canviar el mapa: feu clic els botons verds amb una creu de color negre per apropar; al botó verd amb un guió per allunyar la imatge; o en les fletxes verdes per a mapes adjacents.


METAR-TAF: